sensor_id;sensor_type;location;lat;lon;timestamp;P1;durP1;ratioP1;P2;durP2;ratioP2
25509;SDS011;13413;52.336;21.200;2023-04-15T00:01:08;13.60;;;10.90;;
25509;SDS011;13413;52.336;21.200;2023-04-15T00:04:02;12.90;;;11.20;;
25509;SDS011;13413;52.336;21.200;2023-04-15T00:06:56;13.40;;;11.20;;
25509;SDS011;13413;52.336;21.200;2023-04-15T00:09:50;15.50;;;11.30;;
25509;SDS011;13413;52.336;21.200;2023-04-15T00:12:44;14.30;;;11.20;;
25509;SDS011;13413;52.336;21.200;2023-04-15T00:15:38;13.80;;;10.70;;
25509;SDS011;13413;52.336;21.200;2023-04-15T00:18:32;15.00;;;11.30;;
25509;SDS011;13413;52.336;21.200;2023-04-15T00:21:26;19.00;;;11.50;;
25509;SDS011;13413;52.336;21.200;2023-04-15T00:24:20;13.00;;;10.80;;
25509;SDS011;13413;52.336;21.200;2023-04-15T00:27:14;13.40;;;11.00;;
25509;SDS011;13413;52.336;21.200;2023-04-15T00:30:09;13.80;;;10.80;;
25509;SDS011;13413;52.336;21.200;2023-04-15T00:33:04;11.80;;;10.30;;
25509;SDS011;13413;52.336;21.200;2023-04-15T00:43:17;13.20;;;11.00;;
25509;SDS011;13413;52.336;21.200;2023-04-15T00:46:11;12.40;;;10.50;;
25509;SDS011;13413;52.336;21.200;2023-04-15T00:49:07;12.30;;;10.90;;
25509;SDS011;13413;52.336;21.200;2023-04-15T00:52:01;14.40;;;11.80;;
25509;SDS011;13413;52.336;21.200;2023-04-15T00:54:55;13.60;;;11.40;;
25509;SDS011;13413;52.336;21.200;2023-04-15T00:57:49;13.00;;;11.60;;
25509;SDS011;13413;52.336;21.200;2023-04-15T01:00:43;13.60;;;11.30;;
25509;SDS011;13413;52.336;21.200;2023-04-15T01:03:37;14.70;;;11.80;;
25509;SDS011;13413;52.336;21.200;2023-04-15T01:06:31;13.00;;;11.00;;
25509;SDS011;13413;52.336;21.200;2023-04-15T01:09:25;13.10;;;11.70;;
25509;SDS011;13413;52.336;21.200;2023-04-15T01:12:19;15.50;;;12.40;;
25509;SDS011;13413;52.336;21.200;2023-04-15T01:15:14;14.60;;;11.30;;
25509;SDS011;13413;52.336;21.200;2023-04-15T01:18:09;13.40;;;11.50;;
25509;SDS011;13413;52.336;21.200;2023-04-15T01:21:03;13.50;;;11.80;;
25509;SDS011;13413;52.336;21.200;2023-04-15T01:23:58;14.70;;;11.90;;
25509;SDS011;13413;52.336;21.200;2023-04-15T01:26:53;14.60;;;11.40;;
25509;SDS011;13413;52.336;21.200;2023-04-15T01:29:47;14.20;;;12.20;;
25509;SDS011;13413;52.336;21.200;2023-04-15T01:32:41;17.60;;;13.40;;
25509;SDS011;13413;52.336;21.200;2023-04-15T01:35:35;19.00;;;13.10;;
25509;SDS011;13413;52.336;21.200;2023-04-15T01:38:29;14.00;;;12.30;;
25509;SDS011;13413;52.336;21.200;2023-04-15T01:41:25;13.40;;;11.00;;
25509;SDS011;13413;52.336;21.200;2023-04-15T01:44:20;15.20;;;12.60;;
25509;SDS011;13413;52.336;21.200;2023-04-15T01:47:14;14.30;;;12.40;;
25509;SDS011;13413;52.336;21.200;2023-04-15T01:50:09;19.60;;;13.90;;
25509;SDS011;13413;52.336;21.200;2023-04-15T01:55:56;18.00;;;13.90;;
25509;SDS011;13413;52.336;21.200;2023-04-15T01:58:50;17.60;;;13.00;;
25509;SDS011;13413;52.336;21.200;2023-04-15T02:01:44;18.50;;;13.70;;
25509;SDS011;13413;52.336;21.200;2023-04-15T02:04:38;16.40;;;13.70;;
25509;SDS011;13413;52.336;21.200;2023-04-15T02:07:32;15.40;;;13.70;;
25509;SDS011;13413;52.336;21.200;2023-04-15T02:10:26;17.40;;;13.90;;
25509;SDS011;13413;52.336;21.200;2023-04-15T02:13:20;15.00;;;13.30;;
25509;SDS011;13413;52.336;21.200;2023-04-15T02:16:17;17.60;;;13.70;;
25509;SDS011;13413;52.336;21.200;2023-04-15T02:19:11;17.30;;;13.90;;
25509;SDS011;13413;52.336;21.200;2023-04-15T02:22:05;16.30;;;14.60;;
25509;SDS011;13413;52.336;21.200;2023-04-15T02:24:59;16.90;;;14.50;;
25509;SDS011;13413;52.336;21.200;2023-04-15T02:27:53;16.80;;;14.40;;
25509;SDS011;13413;52.336;21.200;2023-04-15T02:30:50;17.20;;;13.90;;
25509;SDS011;13413;52.336;21.200;2023-04-15T02:33:44;18.30;;;15.00;;
25509;SDS011;13413;52.336;21.200;2023-04-15T02:36:38;16.00;;;14.00;;
25509;SDS011;13413;52.336;21.200;2023-04-15T02:39:32;15.60;;;13.90;;
25509;SDS011;13413;52.336;21.200;2023-04-15T02:42:26;17.50;;;14.60;;
25509;SDS011;13413;52.336;21.200;2023-04-15T02:45:20;17.10;;;15.00;;
25509;SDS011;13413;52.336;21.200;2023-04-15T02:48:15;15.30;;;13.10;;
25509;SDS011;13413;52.336;21.200;2023-04-15T02:51:15;18.50;;;14.30;;
25509;SDS011;13413;52.336;21.200;2023-04-15T03:03:00;15.90;;;14.20;;
25509;SDS011;13413;52.336;21.200;2023-04-15T03:08:47;18.70;;;14.80;;
25509;SDS011;13413;52.336;21.200;2023-04-15T03:11:41;18.60;;;14.80;;
25509;SDS011;13413;52.336;21.200;2023-04-15T03:14:35;20.50;;;15.30;;
25509;SDS011;13413;52.336;21.200;2023-04-15T03:17:32;22.20;;;15.00;;
25509;SDS011;13413;52.336;21.200;2023-04-15T03:20:27;16.20;;;14.50;;
25509;SDS011;13413;52.336;21.200;2023-04-15T03:23:21;19.50;;;15.50;;
25509;SDS011;13413;52.336;21.200;2023-04-15T03:26:24;18.30;;;14.20;;
25509;SDS011;13413;52.336;21.200;2023-04-15T03:29:19;22.20;;;15.10;;
25509;SDS011;13413;52.336;21.200;2023-04-15T03:32:13;16.30;;;14.60;;
25509;SDS011;13413;52.336;21.200;2023-04-15T03:35:08;20.50;;;15.40;;
25509;SDS011;13413;52.336;21.200;2023-04-15T03:38:02;17.20;;;15.30;;
25509;SDS011;13413;52.336;21.200;2023-04-15T03:40:56;18.40;;;14.70;;
25509;SDS011;13413;52.336;21.200;2023-04-15T03:43:50;18.50;;;15.50;;
25509;SDS011;13413;52.336;21.200;2023-04-15T03:46:44;18.90;;;14.40;;
25509;SDS011;13413;52.336;21.200;2023-04-15T03:49:38;20.10;;;14.50;;
25509;SDS011;13413;52.336;21.200;2023-04-15T03:52:32;16.50;;;13.90;;
25509;SDS011;13413;52.336;21.200;2023-04-15T03:55:26;18.60;;;15.60;;
25509;SDS011;13413;52.336;21.200;2023-04-15T03:58:20;19.10;;;15.00;;
25509;SDS011;13413;52.336;21.200;2023-04-15T04:01:14;18.30;;;14.40;;
25509;SDS011;13413;52.336;21.200;2023-04-15T04:04:08;16.20;;;13.80;;
25509;SDS011;13413;52.336;21.200;2023-04-15T04:07:02;18.50;;;14.20;;
25509;SDS011;13413;52.336;21.200;2023-04-15T04:09:56;16.70;;;13.90;;
25509;SDS011;13413;52.336;21.200;2023-04-15T04:12:50;18.60;;;15.10;;
25509;SDS011;13413;52.336;21.200;2023-04-15T04:15:44;18.10;;;13.20;;
25509;SDS011;13413;52.336;21.200;2023-04-15T04:18:41;18.70;;;15.00;;
25509;SDS011;13413;52.336;21.200;2023-04-15T04:21:35;16.50;;;13.90;;
25509;SDS011;13413;52.336;21.200;2023-04-15T04:24:29;20.30;;;14.50;;
25509;SDS011;13413;52.336;21.200;2023-04-15T04:27:23;16.50;;;13.70;;
25509;SDS011;13413;52.336;21.200;2023-04-15T04:30:17;20.40;;;15.30;;
25509;SDS011;13413;52.336;21.200;2023-04-15T04:33:11;18.00;;;15.10;;
25509;SDS011;13413;52.336;21.200;2023-04-15T04:36:06;16.30;;;14.50;;
25509;SDS011;13413;52.336;21.200;2023-04-15T04:39:00;21.00;;;16.20;;
25509;SDS011;13413;52.336;21.200;2023-04-15T04:41:54;18.10;;;15.70;;
25509;SDS011;13413;52.336;21.200;2023-04-15T04:44:48;20.50;;;15.80;;
25509;SDS011;13413;52.336;21.200;2023-04-15T04:47:42;19.70;;;15.40;;
25509;SDS011;13413;52.336;21.200;2023-04-15T04:50:39;18.30;;;15.00;;
25509;SDS011;13413;52.336;21.200;2023-04-15T04:53:33;15.80;;;14.00;;
25509;SDS011;13413;52.336;21.200;2023-04-15T04:56:27;21.60;;;17.10;;
25509;SDS011;13413;52.336;21.200;2023-04-15T04:59:21;16.90;;;15.10;;
25509;SDS011;13413;52.336;21.200;2023-04-15T05:02:22;19.60;;;16.20;;
25509;SDS011;13413;52.336;21.200;2023-04-15T05:05:16;21.90;;;15.50;;
25509;SDS011;13413;52.336;21.200;2023-04-15T05:08:10;18.20;;;15.10;;
25509;SDS011;13413;52.336;21.200;2023-04-15T05:11:04;20.10;;;14.90;;
25509;SDS011;13413;52.336;21.200;2023-04-15T05:13:58;21.20;;;15.80;;
25509;SDS011;13413;52.336;21.200;2023-04-15T05:27:14;18.30;;;15.80;;
25509;SDS011;13413;52.336;21.200;2023-04-15T05:30:09;20.20;;;16.30;;
25509;SDS011;13413;52.336;21.200;2023-04-15T05:33:03;19.90;;;15.10;;
25509;SDS011;13413;52.336;21.200;2023-04-15T05:35:57;19.40;;;15.90;;
25509;SDS011;13413;52.336;21.200;2023-04-15T05:38:51;22.90;;;16.90;;
25509;SDS011;13413;52.336;21.200;2023-04-15T05:41:45;17.60;;;15.50;;
25509;SDS011;13413;52.336;21.200;2023-04-15T05:44:39;57.80;;;41.20;;
25509;SDS011;13413;52.336;21.200;2023-04-15T05:47:33;24.70;;;20.50;;
25509;SDS011;13413;52.336;21.200;2023-04-15T05:50:27;22.40;;;16.90;;
25509;SDS011;13413;52.336;21.200;2023-04-15T05:53:21;46.00;;;34.80;;
25509;SDS011;13413;52.336;21.200;2023-04-15T05:56:15;27.70;;;22.80;;
25509;SDS011;13413;52.336;21.200;2023-04-15T05:59:09;18.60;;;15.80;;
25509;SDS011;13413;52.336;21.200;2023-04-15T06:02:03;19.20;;;16.30;;
25509;SDS011;13413;52.336;21.200;2023-04-15T06:04:57;18.60;;;15.70;;
25509;SDS011;13413;52.336;21.200;2023-04-15T06:07:51;22.30;;;16.20;;
25509;SDS011;13413;52.336;21.200;2023-04-15T06:10:45;30.50;;;22.60;;
25509;SDS011;13413;52.336;21.200;2023-04-15T06:13:40;21.60;;;17.40;;
25509;SDS011;13413;52.336;21.200;2023-04-15T06:16:34;19.80;;;17.70;;
25509;SDS011;13413;52.336;21.200;2023-04-15T06:19:28;18.90;;;15.60;;
25509;SDS011;13413;52.336;21.200;2023-04-15T06:22:22;14.70;;;12.70;;
25509;SDS011;13413;52.336;21.200;2023-04-15T06:25:17;20.00;;;14.60;;
25509;SDS011;13413;52.336;21.200;2023-04-15T06:28:11;21.90;;;17.00;;
25509;SDS011;13413;52.336;21.200;2023-04-15T06:31:05;17.30;;;15.00;;
25509;SDS011;13413;52.336;21.200;2023-04-15T06:33:59;20.20;;;16.80;;
25509;SDS011;13413;52.336;21.200;2023-04-15T06:36:55;21.60;;;18.00;;
25509;SDS011;13413;52.336;21.200;2023-04-15T06:39:50;19.00;;;16.30;;
25509;SDS011;13413;52.336;21.200;2023-04-15T06:42:44;18.80;;;15.40;;
25509;SDS011;13413;52.336;21.200;2023-04-15T06:45:38;16.60;;;14.70;;
25509;SDS011;13413;52.336;21.200;2023-04-15T06:48:32;18.80;;;15.80;;
25509;SDS011;13413;52.336;21.200;2023-04-15T06:51:26;22.30;;;17.40;;
25509;SDS011;13413;52.336;21.200;2023-04-15T06:57:14;17.50;;;15.00;;
25509;SDS011;13413;52.336;21.200;2023-04-15T07:00:09;26.40;;;21.10;;
25509;SDS011;13413;52.336;21.200;2023-04-15T07:03:05;28.40;;;24.30;;
25509;SDS011;13413;52.336;21.200;2023-04-15T07:05:59;23.10;;;18.40;;
25509;SDS011;13413;52.336;21.200;2023-04-15T07:08:54;20.30;;;14.50;;
25509;SDS011;13413;52.336;21.200;2023-04-15T07:11:48;21.40;;;17.90;;
25509;SDS011;13413;52.336;21.200;2023-04-15T07:14:42;17.10;;;13.80;;
25509;SDS011;13413;52.336;21.200;2023-04-15T07:17:36;21.10;;;15.50;;
25509;SDS011;13413;52.336;21.200;2023-04-15T07:20:30;21.20;;;15.50;;
25509;SDS011;13413;52.336;21.200;2023-04-15T07:23:24;26.50;;;16.70;;
25509;SDS011;13413;52.336;21.200;2023-04-15T07:26:18;17.90;;;13.10;;
25509;SDS011;13413;52.336;21.200;2023-04-15T07:32:06;21.30;;;14.50;;
25509;SDS011;13413;52.336;21.200;2023-04-15T07:35:00;25.70;;;16.20;;
25509;SDS011;13413;52.336;21.200;2023-04-15T07:46:30;11.60;;;10.40;;
25509;SDS011;13413;52.336;21.200;2023-04-15T07:49:25;11.00;;;9.90;;
25509;SDS011;13413;52.336;21.200;2023-04-15T07:52:19;10.70;;;9.60;;
25509;SDS011;13413;52.336;21.200;2023-04-15T07:55:13;11.50;;;10.30;;
25509;SDS011;13413;52.336;21.200;2023-04-15T07:58:08;10.20;;;9.10;;
25509;SDS011;13413;52.336;21.200;2023-04-15T08:01:03;12.30;;;10.00;;
25509;SDS011;13413;52.336;21.200;2023-04-15T08:03:57;21.70;;;17.40;;
25509;SDS011;13413;52.336;21.200;2023-04-15T08:06:51;15.60;;;11.60;;
25509;SDS011;13413;52.336;21.200;2023-04-15T08:09:45;22.60;;;13.50;;
25509;SDS011;13413;52.336;21.200;2023-04-15T08:12:39;113.20;;;45.20;;
25509;SDS011;13413;52.336;21.200;2023-04-15T08:15:34;34.10;;;18.80;;
25509;SDS011;13413;52.336;21.200;2023-04-15T08:18:28;13.00;;;10.60;;
25509;SDS011;13413;52.336;21.200;2023-04-15T08:24:29;13.50;;;10.70;;
25509;SDS011;13413;52.336;21.200;2023-04-15T08:27:23;12.30;;;10.90;;
25509;SDS011;13413;52.336;21.200;2023-04-15T08:30:18;10.70;;;8.90;;
25509;SDS011;13413;52.336;21.200;2023-04-15T08:33:11;10.60;;;9.40;;
25509;SDS011;13413;52.336;21.200;2023-04-15T08:36:06;40.10;;;15.50;;
25509;SDS011;13413;52.336;21.200;2023-04-15T08:39:00;31.10;;;14.30;;
25509;SDS011;13413;52.336;21.200;2023-04-15T08:41:55;45.00;;;17.00;;
25509;SDS011;13413;52.336;21.200;2023-04-15T08:44:52;36.10;;;14.60;;
25509;SDS011;13413;52.336;21.200;2023-04-15T08:50:43;11.00;;;8.50;;
25509;SDS011;13413;52.336;21.200;2023-04-15T08:53:37;10.90;;;9.30;;
25509;SDS011;13413;52.336;21.200;2023-04-15T08:56:32;10.60;;;9.10;;
25509;SDS011;13413;52.336;21.200;2023-04-15T08:59:26;11.30;;;8.50;;
25509;SDS011;13413;52.336;21.200;2023-04-15T09:02:20;9.70;;;7.10;;
25509;SDS011;13413;52.336;21.200;2023-04-15T09:05:15;11.10;;;8.50;;
25509;SDS011;13413;52.336;21.200;2023-04-15T09:08:10;40.70;;;28.90;;
25509;SDS011;13413;52.336;21.200;2023-04-15T09:11:04;9.50;;;8.50;;
25509;SDS011;13413;52.336;21.200;2023-04-15T09:13:58;8.80;;;7.40;;
25509;SDS011;13413;52.336;21.200;2023-04-15T09:16:59;9.00;;;7.70;;
25509;SDS011;13413;52.336;21.200;2023-04-15T09:23:10;7.00;;;6.30;;
25509;SDS011;13413;52.336;21.200;2023-04-15T09:26:05;9.50;;;7.50;;
25509;SDS011;13413;52.336;21.200;2023-04-15T09:29:04;9.50;;;6.70;;
25509;SDS011;13413;52.336;21.200;2023-04-15T09:31:59;7.70;;;6.90;;
25509;SDS011;13413;52.336;21.200;2023-04-15T09:35:08;7.90;;;7.00;;
25509;SDS011;13413;52.336;21.200;2023-04-15T09:38:04;10.80;;;8.40;;
25509;SDS011;13413;52.336;21.200;2023-04-15T09:40:59;13.40;;;9.80;;
25509;SDS011;13413;52.336;21.200;2023-04-15T09:43:53;7.80;;;7.00;;
25509;SDS011;13413;52.336;21.200;2023-04-15T09:46:46;8.40;;;7.00;;
25509;SDS011;13413;52.336;21.200;2023-04-15T09:49:43;8.00;;;6.70;;
25509;SDS011;13413;52.336;21.200;2023-04-15T09:52:48;9.30;;;8.40;;
25509;SDS011;13413;52.336;21.200;2023-04-15T09:55:44;7.80;;;4.70;;
25509;SDS011;13413;52.336;21.200;2023-04-15T10:07:21;9.10;;;8.30;;
25509;SDS011;13413;52.336;21.200;2023-04-15T10:10:16;8.80;;;7.90;;
25509;SDS011;13413;52.336;21.200;2023-04-15T10:13:11;8.60;;;7.70;;
25509;SDS011;13413;52.336;21.200;2023-04-15T10:16:09;9.90;;;8.40;;
25509;SDS011;13413;52.336;21.200;2023-04-15T10:19:06;7.80;;;6.90;;
25509;SDS011;13413;52.336;21.200;2023-04-15T10:22:02;10.30;;;9.30;;
25509;SDS011;13413;52.336;21.200;2023-04-15T10:24:57;8.90;;;7.80;;
25509;SDS011;13413;52.336;21.200;2023-04-15T10:27:51;9.30;;;7.10;;
25509;SDS011;13413;52.336;21.200;2023-04-15T10:30:45;7.90;;;6.90;;
25509;SDS011;13413;52.336;21.200;2023-04-15T10:33:40;9.00;;;8.10;;
25509;SDS011;13413;52.336;21.200;2023-04-15T10:36:55;7.50;;;6.70;;
25509;SDS011;13413;52.336;21.200;2023-04-15T10:39:52;6.70;;;5.90;;
25509;SDS011;13413;52.336;21.200;2023-04-15T10:45:56;7.70;;;7.00;;
25509;SDS011;13413;52.336;21.200;2023-04-15T10:48:52;5.90;;;5.30;;
25509;SDS011;13413;52.336;21.200;2023-04-15T10:51:49;10.50;;;8.40;;
25509;SDS011;13413;52.336;21.200;2023-04-15T10:54:43;8.50;;;7.60;;
25509;SDS011;13413;52.336;21.200;2023-04-15T10:57:39;10.40;;;7.90;;
25509;SDS011;13413;52.336;21.200;2023-04-15T11:00:35;7.30;;;6.60;;
25509;SDS011;13413;52.336;21.200;2023-04-15T11:03:36;9.20;;;6.30;;
25509;SDS011;13413;52.336;21.200;2023-04-15T11:06:44;7.80;;;6.60;;
25509;SDS011;13413;52.336;21.200;2023-04-15T11:09:56;8.60;;;6.40;;
25509;SDS011;13413;52.336;21.200;2023-04-15T11:15:45;8.70;;;7.30;;
25509;SDS011;13413;52.336;21.200;2023-04-15T11:21:33;7.90;;;5.90;;
25509;SDS011;13413;52.336;21.200;2023-04-15T11:24:28;5.80;;;5.20;;
25509;SDS011;13413;52.336;21.200;2023-04-15T11:27:22;6.90;;;5.50;;
25509;SDS011;13413;52.336;21.200;2023-04-15T11:30:20;6.20;;;5.50;;
25509;SDS011;13413;52.336;21.200;2023-04-15T11:33:15;7.20;;;5.00;;
25509;SDS011;13413;52.336;21.200;2023-04-15T11:36:09;6.20;;;5.60;;
25509;SDS011;13413;52.336;21.200;2023-04-15T11:39:03;7.50;;;6.20;;
25509;SDS011;13413;52.336;21.200;2023-04-15T11:42:00;6.70;;;5.00;;
25509;SDS011;13413;52.336;21.200;2023-04-15T11:45:00;4.80;;;4.30;;
25509;SDS011;13413;52.336;21.200;2023-04-15T11:48:05;5.10;;;4.60;;
25509;SDS011;13413;52.336;21.200;2023-04-15T11:51:01;5.10;;;4.50;;
25509;SDS011;13413;52.336;21.200;2023-04-15T11:53:56;7.70;;;5.90;;
25509;SDS011;13413;52.336;21.200;2023-04-15T11:56:52;5.10;;;4.20;;
25509;SDS011;13413;52.336;21.200;2023-04-15T11:59:46;5.20;;;4.70;;
25509;SDS011;13413;52.336;21.200;2023-04-15T12:02:40;6.20;;;5.10;;
25509;SDS011;13413;52.336;21.200;2023-04-15T12:05:35;9.00;;;4.20;;
25509;SDS011;13413;52.336;21.200;2023-04-15T12:08:55;4.60;;;4.10;;
25509;SDS011;13413;52.336;21.200;2023-04-15T12:11:50;5.70;;;4.10;;
25509;SDS011;13413;52.336;21.200;2023-04-15T12:14:50;3.70;;;3.20;;
25509;SDS011;13413;52.336;21.200;2023-04-15T12:30:04;4.50;;;4.00;;
25509;SDS011;13413;52.336;21.200;2023-04-15T12:32:59;4.90;;;4.30;;
25509;SDS011;13413;52.336;21.200;2023-04-15T12:35:54;5.70;;;4.10;;
25509;SDS011;13413;52.336;21.200;2023-04-15T12:38:48;5.00;;;4.30;;
25509;SDS011;13413;52.336;21.200;2023-04-15T12:44:36;5.00;;;4.30;;
25509;SDS011;13413;52.336;21.200;2023-04-15T12:47:31;6.80;;;5.20;;
25509;SDS011;13413;52.336;21.200;2023-04-15T12:50:25;7.40;;;5.30;;
25509;SDS011;13413;52.336;21.200;2023-04-15T12:53:19;5.20;;;4.10;;
25509;SDS011;13413;52.336;21.200;2023-04-15T12:56:13;7.40;;;4.70;;
25509;SDS011;13413;52.336;21.200;2023-04-15T12:59:07;5.00;;;4.40;;
25509;SDS011;13413;52.336;21.200;2023-04-15T13:02:00;5.60;;;4.60;;
25509;SDS011;13413;52.336;21.200;2023-04-15T13:04:55;4.70;;;4.10;;
25509;SDS011;13413;52.336;21.200;2023-04-15T13:07:49;5.00;;;3.90;;
25509;SDS011;13413;52.336;21.200;2023-04-15T13:10:43;5.20;;;4.00;;
25509;SDS011;13413;52.336;21.200;2023-04-15T13:13:38;4.80;;;3.80;;
25509;SDS011;13413;52.336;21.200;2023-04-15T13:16:32;5.10;;;4.00;;
25509;SDS011;13413;52.336;21.200;2023-04-15T13:19:26;5.90;;;4.10;;
25509;SDS011;13413;52.336;21.200;2023-04-15T13:22:21;5.30;;;4.40;;
25509;SDS011;13413;52.336;21.200;2023-04-15T13:25:15;6.90;;;4.90;;
25509;SDS011;13413;52.336;21.200;2023-04-15T13:28:09;5.40;;;4.20;;
25509;SDS011;13413;52.336;21.200;2023-04-15T13:31:04;5.60;;;4.70;;
25509;SDS011;13413;52.336;21.200;2023-04-15T13:33:58;5.80;;;4.40;;
25509;SDS011;13413;52.336;21.200;2023-04-15T13:36:53;5.00;;;4.40;;
25509;SDS011;13413;52.336;21.200;2023-04-15T13:39:47;5.30;;;4.10;;
25509;SDS011;13413;52.336;21.200;2023-04-15T13:42:43;5.60;;;4.40;;
25509;SDS011;13413;52.336;21.200;2023-04-15T13:45:37;4.60;;;4.20;;
25509;SDS011;13413;52.336;21.200;2023-04-15T13:48:31;4.40;;;3.60;;
25509;SDS011;13413;52.336;21.200;2023-04-15T13:51:25;5.10;;;3.60;;
25509;SDS011;13413;52.336;21.200;2023-04-15T13:54:19;5.20;;;4.00;;
25509;SDS011;13413;52.336;21.200;2023-04-15T13:57:13;5.20;;;3.60;;
25509;SDS011;13413;52.336;21.200;2023-04-15T14:00:09;3.90;;;3.00;;
25509;SDS011;13413;52.336;21.200;2023-04-15T14:03:03;4.10;;;3.20;;
25509;SDS011;13413;52.336;21.200;2023-04-15T14:05:57;3.80;;;3.40;;
25509;SDS011;13413;52.336;21.200;2023-04-15T14:08:51;3.70;;;3.30;;
25509;SDS011;13413;52.336;21.200;2023-04-15T14:11:46;7.10;;;4.30;;
25509;SDS011;13413;52.336;21.200;2023-04-15T14:14:40;5.60;;;3.80;;
25509;SDS011;13413;52.336;21.200;2023-04-15T14:17:35;7.20;;;4.00;;
25509;SDS011;13413;52.336;21.200;2023-04-15T14:20:29;8.20;;;5.10;;
25509;SDS011;13413;52.336;21.200;2023-04-15T14:23:23;5.40;;;4.80;;
25509;SDS011;13413;52.336;21.200;2023-04-15T14:26:17;6.60;;;5.10;;
25509;SDS011;13413;52.336;21.200;2023-04-15T14:29:11;4.90;;;3.90;;
25509;SDS011;13413;52.336;21.200;2023-04-15T14:32:06;4.00;;;3.10;;
25509;SDS011;13413;52.336;21.200;2023-04-15T14:35:00;5.70;;;3.70;;
25509;SDS011;13413;52.336;21.200;2023-04-15T14:37:55;8.70;;;4.30;;
25509;SDS011;13413;52.336;21.200;2023-04-15T14:49:13;4.20;;;3.50;;
25509;SDS011;13413;52.336;21.200;2023-04-15T14:52:07;5.60;;;3.20;;
25509;SDS011;13413;52.336;21.200;2023-04-15T14:55:01;5.00;;;3.60;;
25509;SDS011;13413;52.336;21.200;2023-04-15T15:00:49;3.90;;;3.00;;
25509;SDS011;13413;52.336;21.200;2023-04-15T15:03:43;4.80;;;3.60;;
25509;SDS011;13413;52.336;21.200;2023-04-15T15:09:31;4.20;;;3.30;;
25509;SDS011;13413;52.336;21.200;2023-04-15T15:12:25;4.20;;;3.60;;
25509;SDS011;13413;52.336;21.200;2023-04-15T15:15:20;5.90;;;3.70;;
25509;SDS011;13413;52.336;21.200;2023-04-15T15:18:14;3.90;;;3.40;;
25509;SDS011;13413;52.336;21.200;2023-04-15T15:21:09;5.40;;;3.30;;
25509;SDS011;13413;52.336;21.200;2023-04-15T15:24:04;3.50;;;3.10;;
25509;SDS011;13413;52.336;21.200;2023-04-15T15:26:59;4.30;;;3.70;;
25509;SDS011;13413;52.336;21.200;2023-04-15T15:29:54;5.40;;;3.40;;
25509;SDS011;13413;52.336;21.200;2023-04-15T15:32:48;3.40;;;2.70;;
25509;SDS011;13413;52.336;21.200;2023-04-15T15:35:43;4.00;;;3.40;;
25509;SDS011;13413;52.336;21.200;2023-04-15T15:38:38;5.10;;;4.20;;
25509;SDS011;13413;52.336;21.200;2023-04-15T15:41:33;4.60;;;3.10;;
25509;SDS011;13413;52.336;21.200;2023-04-15T15:44:27;4.30;;;3.40;;
25509;SDS011;13413;52.336;21.200;2023-04-15T15:47:21;5.30;;;4.20;;
25509;SDS011;13413;52.336;21.200;2023-04-15T15:50:16;5.50;;;4.20;;
25509;SDS011;13413;52.336;21.200;2023-04-15T15:53:11;5.20;;;3.50;;
25509;SDS011;13413;52.336;21.200;2023-04-15T15:56:05;7.40;;;4.90;;
25509;SDS011;13413;52.336;21.200;2023-04-15T15:58:59;6.50;;;4.40;;
25509;SDS011;13413;52.336;21.200;2023-04-15T16:01:54;5.20;;;3.50;;
25509;SDS011;13413;52.336;21.200;2023-04-15T16:04:49;6.50;;;4.10;;
25509;SDS011;13413;52.336;21.200;2023-04-15T16:07:44;4.10;;;3.40;;
25509;SDS011;13413;52.336;21.200;2023-04-15T16:10:38;4.60;;;3.20;;
25509;SDS011;13413;52.336;21.200;2023-04-15T16:13:34;5.10;;;3.60;;
25509;SDS011;13413;52.336;21.200;2023-04-15T16:16:28;3.80;;;2.90;;
25509;SDS011;13413;52.336;21.200;2023-04-15T16:19:23;2.90;;;2.50;;
25509;SDS011;13413;52.336;21.200;2023-04-15T16:22:17;3.10;;;2.70;;
25509;SDS011;13413;52.336;21.200;2023-04-15T16:25:11;4.30;;;3.10;;
25509;SDS011;13413;52.336;21.200;2023-04-15T16:28:05;5.20;;;3.90;;
25509;SDS011;13413;52.336;21.200;2023-04-15T16:31:00;7.20;;;3.90;;
25509;SDS011;13413;52.336;21.200;2023-04-15T16:33:55;5.30;;;3.70;;
25509;SDS011;13413;52.336;21.200;2023-04-15T16:39:42;6.10;;;4.40;;
25509;SDS011;13413;52.336;21.200;2023-04-15T16:42:43;11.20;;;5.20;;
25509;SDS011;13413;52.336;21.200;2023-04-15T16:45:38;6.90;;;5.20;;
25509;SDS011;13413;52.336;21.200;2023-04-15T16:48:32;5.50;;;4.40;;
25509;SDS011;13413;52.336;21.200;2023-04-15T16:51:28;5.50;;;4.70;;
25509;SDS011;13413;52.336;21.200;2023-04-15T16:54:23;8.00;;;4.70;;
25509;SDS011;13413;52.336;21.200;2023-04-15T16:57:17;7.50;;;6.20;;
25509;SDS011;13413;52.336;21.200;2023-04-15T17:11:54;6.60;;;5.00;;
25509;SDS011;13413;52.336;21.200;2023-04-15T17:14:48;7.10;;;5.30;;
25509;SDS011;13413;52.336;21.200;2023-04-15T17:17:42;9.90;;;6.00;;
25509;SDS011;13413;52.336;21.200;2023-04-15T17:20:37;7.40;;;5.20;;
25509;SDS011;13413;52.336;21.200;2023-04-15T17:23:31;7.80;;;5.70;;
25509;SDS011;13413;52.336;21.200;2023-04-15T17:26:25;9.20;;;6.10;;
25509;SDS011;13413;52.336;21.200;2023-04-15T17:29:19;7.90;;;5.50;;
25509;SDS011;13413;52.336;21.200;2023-04-15T17:32:14;9.00;;;6.50;;
25509;SDS011;13413;52.336;21.200;2023-04-15T17:35:09;9.30;;;7.00;;
25509;SDS011;13413;52.336;21.200;2023-04-15T17:38:03;15.10;;;8.60;;
25509;SDS011;13413;52.336;21.200;2023-04-15T17:43:51;11.40;;;8.00;;
25509;SDS011;13413;52.336;21.200;2023-04-15T17:46:46;12.20;;;8.00;;
25509;SDS011;13413;52.336;21.200;2023-04-15T17:49:41;10.40;;;7.70;;
25509;SDS011;13413;52.336;21.200;2023-04-15T17:52:35;14.10;;;6.80;;
25509;SDS011;13413;52.336;21.200;2023-04-15T17:55:29;8.80;;;7.40;;
25509;SDS011;13413;52.336;21.200;2023-04-15T17:58:24;12.00;;;8.50;;
25509;SDS011;13413;52.336;21.200;2023-04-15T18:01:18;12.00;;;7.20;;
25509;SDS011;13413;52.336;21.200;2023-04-15T18:04:12;7.70;;;5.90;;
25509;SDS011;13413;52.336;21.200;2023-04-15T18:07:06;7.20;;;6.00;;
25509;SDS011;13413;52.336;21.200;2023-04-15T18:10:00;8.10;;;6.20;;
25509;SDS011;13413;52.336;21.200;2023-04-15T18:12:59;12.60;;;7.40;;
25509;SDS011;13413;52.336;21.200;2023-04-15T18:15:53;12.50;;;7.90;;
25509;SDS011;13413;52.336;21.200;2023-04-15T18:18:47;17.50;;;9.70;;
25509;SDS011;13413;52.336;21.200;2023-04-15T18:21:41;11.00;;;6.10;;
25509;SDS011;13413;52.336;21.200;2023-04-15T18:24:36;7.40;;;5.40;;
25509;SDS011;13413;52.336;21.200;2023-04-15T18:27:30;6.90;;;5.40;;
25509;SDS011;13413;52.336;21.200;2023-04-15T18:30:25;6.00;;;5.10;;
25509;SDS011;13413;52.336;21.200;2023-04-15T18:33:19;6.20;;;4.20;;
25509;SDS011;13413;52.336;21.200;2023-04-15T18:36:13;5.40;;;4.50;;
25509;SDS011;13413;52.336;21.200;2023-04-15T18:39:08;8.00;;;6.00;;
25509;SDS011;13413;52.336;21.200;2023-04-15T18:42:03;17.50;;;6.70;;
25509;SDS011;13413;52.336;21.200;2023-04-15T18:44:57;8.60;;;4.70;;
25509;SDS011;13413;52.336;21.200;2023-04-15T18:47:52;4.90;;;4.00;;
25509;SDS011;13413;52.336;21.200;2023-04-15T18:50:47;4.60;;;3.60;;
25509;SDS011;13413;52.336;21.200;2023-04-15T18:53:42;5.50;;;3.10;;
25509;SDS011;13413;52.336;21.200;2023-04-15T18:56:35;6.40;;;3.60;;
25509;SDS011;13413;52.336;21.200;2023-04-15T18:59:30;6.00;;;3.50;;
25509;SDS011;13413;52.336;21.200;2023-04-15T19:02:24;12.20;;;8.40;;